sensor_id;sensor_type;location;lat;lon;timestamp;P1;durP1;ratioP1;P2;durP2;ratioP2
4732;SDS011;2380;53.668;10.008;2022-10-16T00:00:19;16.20;;;9.80;;
4732;SDS011;2380;53.668;10.008;2022-10-16T00:02:48;18.20;;;8.17;;
4732;SDS011;2380;53.668;10.008;2022-10-16T00:05:17;15.20;;;8.80;;
4732;SDS011;2380;53.668;10.008;2022-10-16T00:07:49;17.47;;;8.80;;
4732;SDS011;2380;53.668;10.008;2022-10-16T00:10:19;14.73;;;7.90;;
4732;SDS011;2380;53.668;10.008;2022-10-16T00:12:48;19.97;;;9.50;;
4732;SDS011;2380;53.668;10.008;2022-10-16T00:15:18;14.77;;;9.90;;
4732;SDS011;2380;53.668;10.008;2022-10-16T00:17:47;16.13;;;8.13;;
4732;SDS011;2380;53.668;10.008;2022-10-16T00:20:17;14.70;;;8.70;;
4732;SDS011;2380;53.668;10.008;2022-10-16T00:22:46;11.50;;;7.93;;
4732;SDS011;2380;53.668;10.008;2022-10-16T00:25:18;12.50;;;7.50;;
4732;SDS011;2380;53.668;10.008;2022-10-16T00:27:48;10.83;;;6.63;;
4732;SDS011;2380;53.668;10.008;2022-10-16T00:30:17;10.90;;;6.43;;
4732;SDS011;2380;53.668;10.008;2022-10-16T00:32:46;14.30;;;7.43;;
4732;SDS011;2380;53.668;10.008;2022-10-16T00:35:16;19.20;;;6.47;;
4732;SDS011;2380;53.668;10.008;2022-10-16T00:37:45;22.73;;;7.20;;
4732;SDS011;2380;53.668;10.008;2022-10-16T00:40:20;10.53;;;5.77;;
4732;SDS011;2380;53.668;10.008;2022-10-16T00:42:49;9.30;;;5.30;;
4732;SDS011;2380;53.668;10.008;2022-10-16T00:45:19;8.50;;;5.00;;
4732;SDS011;2380;53.668;10.008;2022-10-16T00:47:48;8.30;;;5.27;;
4732;SDS011;2380;53.668;10.008;2022-10-16T00:50:20;6.80;;;4.17;;
4732;SDS011;2380;53.668;10.008;2022-10-16T00:52:51;7.77;;;4.30;;
4732;SDS011;2380;53.668;10.008;2022-10-16T00:55:24;7.43;;;4.23;;
4732;SDS011;2380;53.668;10.008;2022-10-16T00:57:56;7.50;;;4.10;;
4732;SDS011;2380;53.668;10.008;2022-10-16T01:00:26;6.40;;;3.17;;
4732;SDS011;2380;53.668;10.008;2022-10-16T01:02:57;10.60;;;3.83;;
4732;SDS011;2380;53.668;10.008;2022-10-16T01:05:30;6.23;;;3.50;;
4732;SDS011;2380;53.668;10.008;2022-10-16T01:08:04;7.23;;;3.50;;
4732;SDS011;2380;53.668;10.008;2022-10-16T01:10:40;4.97;;;2.97;;
4732;SDS011;2380;53.668;10.008;2022-10-16T01:13:14;4.17;;;2.87;;
4732;SDS011;2380;53.668;10.008;2022-10-16T01:15:47;12.27;;;3.90;;
4732;SDS011;2380;53.668;10.008;2022-10-16T01:18:23;8.87;;;3.20;;
4732;SDS011;2380;53.668;10.008;2022-10-16T01:20:59;8.70;;;3.37;;
4732;SDS011;2380;53.668;10.008;2022-10-16T01:23:36;6.83;;;2.83;;
4732;SDS011;2380;53.668;10.008;2022-10-16T01:26:23;5.07;;;2.70;;
4732;SDS011;2380;53.668;10.008;2022-10-16T01:29:06;9.10;;;3.10;;
4732;SDS011;2380;53.668;10.008;2022-10-16T01:31:39;7.03;;;3.20;;
4732;SDS011;2380;53.668;10.008;2022-10-16T01:34:10;4.30;;;2.80;;
4732;SDS011;2380;53.668;10.008;2022-10-16T01:36:45;3.83;;;2.50;;
4732;SDS011;2380;53.668;10.008;2022-10-16T01:39:16;6.70;;;2.87;;
4732;SDS011;2380;53.668;10.008;2022-10-16T01:41:48;10.73;;;2.87;;
4732;SDS011;2380;53.668;10.008;2022-10-16T01:44:25;8.00;;;2.63;;
4732;SDS011;2380;53.668;10.008;2022-10-16T01:46:57;11.80;;;3.13;;
4732;SDS011;2380;53.668;10.008;2022-10-16T01:49:29;5.90;;;2.77;;
4732;SDS011;2380;53.668;10.008;2022-10-16T01:52:02;6.50;;;3.00;;
4732;SDS011;2380;53.668;10.008;2022-10-16T01:54:37;4.83;;;2.63;;
4732;SDS011;2380;53.668;10.008;2022-10-16T01:57:08;6.70;;;2.60;;
4732;SDS011;2380;53.668;10.008;2022-10-16T01:59:42;7.20;;;2.67;;
4732;SDS011;2380;53.668;10.008;2022-10-16T02:02:13;7.37;;;2.60;;
4732;SDS011;2380;53.668;10.008;2022-10-16T02:04:45;6.03;;;2.53;;
4732;SDS011;2380;53.668;10.008;2022-10-16T02:07:15;5.13;;;2.53;;
4732;SDS011;2380;53.668;10.008;2022-10-16T02:09:45;9.80;;;2.70;;
4732;SDS011;2380;53.668;10.008;2022-10-16T02:12:15;7.13;;;2.17;;
4732;SDS011;2380;53.668;10.008;2022-10-16T02:14:51;4.50;;;1.97;;
4732;SDS011;2380;53.668;10.008;2022-10-16T02:17:20;5.67;;;2.60;;
4732;SDS011;2380;53.668;10.008;2022-10-16T02:19:50;5.10;;;2.50;;
4732;SDS011;2380;53.668;10.008;2022-10-16T02:22:22;5.03;;;2.40;;
4732;SDS011;2380;53.668;10.008;2022-10-16T02:24:56;6.80;;;1.90;;
4732;SDS011;2380;53.668;10.008;2022-10-16T02:27:27;6.20;;;2.30;;
4732;SDS011;2380;53.668;10.008;2022-10-16T02:30:04;5.10;;;2.53;;
4732;SDS011;2380;53.668;10.008;2022-10-16T02:32:37;8.07;;;3.13;;
4732;SDS011;2380;53.668;10.008;2022-10-16T02:35:08;3.90;;;1.80;;
4732;SDS011;2380;53.668;10.008;2022-10-16T02:37:37;9.53;;;2.93;;
4732;SDS011;2380;53.668;10.008;2022-10-16T02:40:08;3.43;;;2.43;;
4732;SDS011;2380;53.668;10.008;2022-10-16T02:42:39;6.90;;;2.10;;
4732;SDS011;2380;53.668;10.008;2022-10-16T02:45:11;6.07;;;2.13;;
4732;SDS011;2380;53.668;10.008;2022-10-16T02:47:41;7.70;;;2.97;;
4732;SDS011;2380;53.668;10.008;2022-10-16T02:50:10;6.17;;;3.50;;
4732;SDS011;2380;53.668;10.008;2022-10-16T02:52:39;6.03;;;1.90;;
4732;SDS011;2380;53.668;10.008;2022-10-16T02:55:09;4.17;;;2.20;;
4732;SDS011;2380;53.668;10.008;2022-10-16T02:57:38;6.53;;;2.37;;
4732;SDS011;2380;53.668;10.008;2022-10-16T03:00:12;3.70;;;1.97;;
4732;SDS011;2380;53.668;10.008;2022-10-16T03:02:44;5.73;;;2.27;;
4732;SDS011;2380;53.668;10.008;2022-10-16T03:05:13;4.47;;;2.13;;
4732;SDS011;2380;53.668;10.008;2022-10-16T03:07:43;8.17;;;2.47;;
4732;SDS011;2380;53.668;10.008;2022-10-16T03:10:12;4.97;;;1.93;;
4732;SDS011;2380;53.668;10.008;2022-10-16T03:12:42;5.07;;;2.20;;
4732;SDS011;2380;53.668;10.008;2022-10-16T03:15:14;3.23;;;1.73;;
4732;SDS011;2380;53.668;10.008;2022-10-16T03:17:43;5.20;;;1.87;;
4732;SDS011;2380;53.668;10.008;2022-10-16T03:20:13;5.30;;;2.23;;
4732;SDS011;2380;53.668;10.008;2022-10-16T03:22:42;4.70;;;1.83;;
4732;SDS011;2380;53.668;10.008;2022-10-16T03:25:12;3.93;;;1.80;;
4732;SDS011;2380;53.668;10.008;2022-10-16T03:27:41;4.57;;;2.40;;
4732;SDS011;2380;53.668;10.008;2022-10-16T03:30:14;4.97;;;2.27;;
4732;SDS011;2380;53.668;10.008;2022-10-16T03:32:43;5.17;;;1.90;;
4732;SDS011;2380;53.668;10.008;2022-10-16T03:35:13;6.07;;;2.47;;
4732;SDS011;2380;53.668;10.008;2022-10-16T03:37:42;4.87;;;2.20;;
4732;SDS011;2380;53.668;10.008;2022-10-16T03:40:12;8.27;;;2.33;;
4732;SDS011;2380;53.668;10.008;2022-10-16T03:42:41;11.10;;;5.10;;
4732;SDS011;2380;53.668;10.008;2022-10-16T03:45:14;4.70;;;1.83;;
4732;SDS011;2380;53.668;10.008;2022-10-16T03:47:43;5.70;;;2.00;;
4732;SDS011;2380;53.668;10.008;2022-10-16T03:50:13;3.97;;;2.13;;
4732;SDS011;2380;53.668;10.008;2022-10-16T03:52:43;9.50;;;2.20;;
4732;SDS011;2380;53.668;10.008;2022-10-16T03:55:12;2.80;;;1.90;;
4732;SDS011;2380;53.668;10.008;2022-10-16T03:57:42;9.90;;;2.47;;
4732;SDS011;2380;53.668;10.008;2022-10-16T04:00:14;5.50;;;1.87;;
4732;SDS011;2380;53.668;10.008;2022-10-16T04:02:44;7.70;;;2.57;;
4732;SDS011;2380;53.668;10.008;2022-10-16T04:05:14;7.77;;;2.20;;
4732;SDS011;2380;53.668;10.008;2022-10-16T04:07:43;4.80;;;1.80;;
4732;SDS011;2380;53.668;10.008;2022-10-16T04:10:12;7.00;;;1.97;;
4732;SDS011;2380;53.668;10.008;2022-10-16T04:12:42;4.07;;;1.57;;
4732;SDS011;2380;53.668;10.008;2022-10-16T04:15:14;5.03;;;1.73;;
4732;SDS011;2380;53.668;10.008;2022-10-16T04:17:44;7.40;;;1.60;;
4732;SDS011;2380;53.668;10.008;2022-10-16T04:20:13;3.60;;;1.50;;
4732;SDS011;2380;53.668;10.008;2022-10-16T04:22:42;6.40;;;2.30;;
4732;SDS011;2380;53.668;10.008;2022-10-16T04:25:12;6.93;;;2.77;;
4732;SDS011;2380;53.668;10.008;2022-10-16T04:27:41;3.63;;;1.80;;
4732;SDS011;2380;53.668;10.008;2022-10-16T04:30:14;7.43;;;1.80;;
4732;SDS011;2380;53.668;10.008;2022-10-16T04:32:43;3.53;;;1.57;;
4732;SDS011;2380;53.668;10.008;2022-10-16T04:35:17;2.77;;;1.57;;
4732;SDS011;2380;53.668;10.008;2022-10-16T04:37:46;6.13;;;1.60;;
4732;SDS011;2380;53.668;10.008;2022-10-16T04:40:16;4.10;;;2.10;;
4732;SDS011;2380;53.668;10.008;2022-10-16T04:42:46;2.40;;;1.20;;
4732;SDS011;2380;53.668;10.008;2022-10-16T04:45:18;6.60;;;1.60;;
4732;SDS011;2380;53.668;10.008;2022-10-16T04:47:47;4.83;;;1.60;;
4732;SDS011;2380;53.668;10.008;2022-10-16T04:50:17;5.90;;;1.70;;
4732;SDS011;2380;53.668;10.008;2022-10-16T04:52:46;6.30;;;2.00;;
4732;SDS011;2380;53.668;10.008;2022-10-16T04:55:15;4.27;;;1.93;;
4732;SDS011;2380;53.668;10.008;2022-10-16T04:57:45;5.03;;;1.70;;
4732;SDS011;2380;53.668;10.008;2022-10-16T05:00:14;9.20;;;3.27;;
4732;SDS011;2380;53.668;10.008;2022-10-16T05:02:46;4.83;;;1.27;;
4732;SDS011;2380;53.668;10.008;2022-10-16T05:05:16;4.60;;;2.27;;
4732;SDS011;2380;53.668;10.008;2022-10-16T05:07:45;3.87;;;1.60;;
4732;SDS011;2380;53.668;10.008;2022-10-16T05:10:15;5.97;;;2.40;;
4732;SDS011;2380;53.668;10.008;2022-10-16T05:12:45;6.00;;;2.00;;
4732;SDS011;2380;53.668;10.008;2022-10-16T05:15:15;7.17;;;2.20;;
4732;SDS011;2380;53.668;10.008;2022-10-16T05:17:47;3.70;;;2.27;;
4732;SDS011;2380;53.668;10.008;2022-10-16T05:20:16;4.53;;;2.10;;
4732;SDS011;2380;53.668;10.008;2022-10-16T05:22:46;6.93;;;3.33;;
4732;SDS011;2380;53.668;10.008;2022-10-16T05:25:15;7.07;;;2.33;;
4732;SDS011;2380;53.668;10.008;2022-10-16T05:27:46;6.50;;;2.30;;
4732;SDS011;2380;53.668;10.008;2022-10-16T05:30:16;6.13;;;2.87;;
4732;SDS011;2380;53.668;10.008;2022-10-16T05:32:49;5.57;;;2.70;;
4732;SDS011;2380;53.668;10.008;2022-10-16T05:35:20;4.87;;;2.50;;
4732;SDS011;2380;53.668;10.008;2022-10-16T05:37:49;8.60;;;3.10;;
4732;SDS011;2380;53.668;10.008;2022-10-16T05:40:19;8.70;;;2.60;;
4732;SDS011;2380;53.668;10.008;2022-10-16T05:42:49;6.83;;;2.87;;
4732;SDS011;2380;53.668;10.008;2022-10-16T05:45:18;8.93;;;2.90;;
4732;SDS011;2380;53.668;10.008;2022-10-16T05:47:50;8.13;;;3.10;;
4732;SDS011;2380;53.668;10.008;2022-10-16T05:50:19;9.50;;;3.30;;
4732;SDS011;2380;53.668;10.008;2022-10-16T05:52:49;7.00;;;3.37;;
4732;SDS011;2380;53.668;10.008;2022-10-16T05:55:18;6.80;;;3.20;;
4732;SDS011;2380;53.668;10.008;2022-10-16T05:57:48;7.47;;;2.50;;
4732;SDS011;2380;53.668;10.008;2022-10-16T06:00:17;6.97;;;3.27;;
4732;SDS011;2380;53.668;10.008;2022-10-16T06:02:46;12.23;;;3.40;;
4732;SDS011;2380;53.668;10.008;2022-10-16T06:05:18;9.43;;;3.03;;
4732;SDS011;2380;53.668;10.008;2022-10-16T06:07:48;8.47;;;2.80;;
4732;SDS011;2380;53.668;10.008;2022-10-16T06:10:17;5.27;;;3.20;;
4732;SDS011;2380;53.668;10.008;2022-10-16T06:12:46;11.43;;;3.20;;
4732;SDS011;2380;53.668;10.008;2022-10-16T06:15:16;11.47;;;3.30;;
4732;SDS011;2380;53.668;10.008;2022-10-16T06:17:45;4.20;;;2.40;;
4732;SDS011;2380;53.668;10.008;2022-10-16T06:20:15;6.10;;;3.00;;
4732;SDS011;2380;53.668;10.008;2022-10-16T06:22:47;3.20;;;2.10;;
4732;SDS011;2380;53.668;10.008;2022-10-16T06:25:16;6.80;;;2.90;;
4732;SDS011;2380;53.668;10.008;2022-10-16T06:27:45;7.30;;;3.13;;
4732;SDS011;2380;53.668;10.008;2022-10-16T06:30:15;9.47;;;4.57;;
4732;SDS011;2380;53.668;10.008;2022-10-16T06:32:44;8.30;;;4.53;;
4732;SDS011;2380;53.668;10.008;2022-10-16T06:35:14;9.57;;;4.47;;
4732;SDS011;2380;53.668;10.008;2022-10-16T06:37:43;8.80;;;3.70;;
4732;SDS011;2380;53.668;10.008;2022-10-16T06:40:15;9.43;;;3.37;;
4732;SDS011;2380;53.668;10.008;2022-10-16T06:42:44;5.93;;;2.20;;
4732;SDS011;2380;53.668;10.008;2022-10-16T06:45:14;7.77;;;3.53;;
4732;SDS011;2380;53.668;10.008;2022-10-16T06:47:43;5.53;;;2.77;;
4732;SDS011;2380;53.668;10.008;2022-10-16T06:50:13;8.47;;;4.27;;
4732;SDS011;2380;53.668;10.008;2022-10-16T06:52:42;7.17;;;3.57;;
4732;SDS011;2380;53.668;10.008;2022-10-16T06:55:12;11.30;;;4.23;;
4732;SDS011;2380;53.668;10.008;2022-10-16T06:57:44;6.13;;;2.80;;
4732;SDS011;2380;53.668;10.008;2022-10-16T07:00:15;26.27;;;10.20;;
4732;SDS011;2380;53.668;10.008;2022-10-16T07:02:45;5.80;;;2.77;;
4732;SDS011;2380;53.668;10.008;2022-10-16T07:05:14;18.40;;;7.10;;
4732;SDS011;2380;53.668;10.008;2022-10-16T07:07:44;32.30;;;14.87;;
4732;SDS011;2380;53.668;10.008;2022-10-16T07:10:16;8.90;;;4.10;;
4732;SDS011;2380;53.668;10.008;2022-10-16T07:12:45;19.60;;;7.67;;
4732;SDS011;2380;53.668;10.008;2022-10-16T07:15:15;13.67;;;4.57;;
4732;SDS011;2380;53.668;10.008;2022-10-16T07:17:44;14.20;;;6.80;;
4732;SDS011;2380;53.668;10.008;2022-10-16T07:20:13;8.67;;;4.23;;
4732;SDS011;2380;53.668;10.008;2022-10-16T07:22:43;10.57;;;4.83;;
4732;SDS011;2380;53.668;10.008;2022-10-16T07:25:12;9.37;;;3.77;;
4732;SDS011;2380;53.668;10.008;2022-10-16T07:27:44;9.33;;;4.73;;
4732;SDS011;2380;53.668;10.008;2022-10-16T07:30:14;5.30;;;2.90;;
4732;SDS011;2380;53.668;10.008;2022-10-16T07:32:43;8.97;;;3.20;;
4732;SDS011;2380;53.668;10.008;2022-10-16T07:35:13;10.00;;;3.57;;
4732;SDS011;2380;53.668;10.008;2022-10-16T07:37:44;11.80;;;3.47;;
4732;SDS011;2380;53.668;10.008;2022-10-16T07:40:16;6.60;;;2.60;;
4732;SDS011;2380;53.668;10.008;2022-10-16T07:42:45;5.37;;;3.10;;
4732;SDS011;2380;53.668;10.008;2022-10-16T07:45:15;16.37;;;3.87;;
4732;SDS011;2380;53.668;10.008;2022-10-16T07:47:44;5.63;;;2.70;;
4732;SDS011;2380;53.668;10.008;2022-10-16T07:50:14;3.07;;;2.20;;
4732;SDS011;2380;53.668;10.008;2022-10-16T07:52:43;8.40;;;4.13;;
4732;SDS011;2380;53.668;10.008;2022-10-16T07:55:12;5.90;;;2.33;;
4732;SDS011;2380;53.668;10.008;2022-10-16T07:57:44;12.10;;;4.10;;
4732;SDS011;2380;53.668;10.008;2022-10-16T08:00:14;5.40;;;2.33;;
4732;SDS011;2380;53.668;10.008;2022-10-16T08:02:43;5.90;;;3.23;;
4732;SDS011;2380;53.668;10.008;2022-10-16T08:05:13;6.03;;;2.90;;
4732;SDS011;2380;53.668;10.008;2022-10-16T08:07:43;6.63;;;3.63;;
4732;SDS011;2380;53.668;10.008;2022-10-16T08:10:18;6.30;;;3.23;;
4732;SDS011;2380;53.668;10.008;2022-10-16T08:12:50;7.83;;;3.30;;
4732;SDS011;2380;53.668;10.008;2022-10-16T08:15:20;6.13;;;2.63;;
4732;SDS011;2380;53.668;10.008;2022-10-16T08:17:57;7.10;;;2.70;;
4732;SDS011;2380;53.668;10.008;2022-10-16T08:20:27;7.00;;;3.97;;
4732;SDS011;2380;53.668;10.008;2022-10-16T08:22:58;6.83;;;3.57;;
4732;SDS011;2380;53.668;10.008;2022-10-16T08:25:28;7.97;;;4.00;;
4732;SDS011;2380;53.668;10.008;2022-10-16T08:28:00;7.23;;;4.20;;
4732;SDS011;2380;53.668;10.008;2022-10-16T08:30:29;5.60;;;2.97;;
4732;SDS011;2380;53.668;10.008;2022-10-16T08:32:58;4.53;;;2.87;;
4732;SDS011;2380;53.668;10.008;2022-10-16T08:35:28;11.33;;;3.57;;
4732;SDS011;2380;53.668;10.008;2022-10-16T08:37:57;4.60;;;3.60;;
4732;SDS011;2380;53.668;10.008;2022-10-16T08:40:27;6.00;;;2.83;;
4732;SDS011;2380;53.668;10.008;2022-10-16T08:43:05;7.07;;;3.17;;
4732;SDS011;2380;53.668;10.008;2022-10-16T08:45:49;6.27;;;3.33;;
4732;SDS011;2380;53.668;10.008;2022-10-16T08:48:29;14.13;;;6.07;;
4732;SDS011;2380;53.668;10.008;2022-10-16T08:51:02;5.73;;;3.13;;
4732;SDS011;2380;53.668;10.008;2022-10-16T08:53:36;4.47;;;2.83;;
4732;SDS011;2380;53.668;10.008;2022-10-16T08:56:07;6.40;;;2.70;;
4732;SDS011;2380;53.668;10.008;2022-10-16T08:58:39;7.00;;;3.50;;
4732;SDS011;2380;53.668;10.008;2022-10-16T09:01:11;5.00;;;3.20;;
4732;SDS011;2380;53.668;10.008;2022-10-16T09:03:46;5.60;;;2.77;;
4732;SDS011;2380;53.668;10.008;2022-10-16T09:06:38;9.50;;;2.90;;
4732;SDS011;2380;53.668;10.008;2022-10-16T09:09:16;10.77;;;2.60;;
4732;SDS011;2380;53.668;10.008;2022-10-16T09:11:56;7.37;;;2.80;;
4732;SDS011;2380;53.668;10.008;2022-10-16T09:14:47;7.47;;;2.70;;
4732;SDS011;2380;53.668;10.008;2022-10-16T09:17:23;6.03;;;2.70;;
4732;SDS011;2380;53.668;10.008;2022-10-16T09:20:19;4.23;;;2.20;;
4732;SDS011;2380;53.668;10.008;2022-10-16T09:22:55;5.87;;;2.37;;
4732;SDS011;2380;53.668;10.008;2022-10-16T09:25:37;10.47;;;2.40;;
4732;SDS011;2380;53.668;10.008;2022-10-16T09:28:08;5.50;;;2.13;;
4732;SDS011;2380;53.668;10.008;2022-10-16T09:30:40;9.80;;;4.57;;
4732;SDS011;2380;53.668;10.008;2022-10-16T09:33:10;4.50;;;2.30;;
4732;SDS011;2380;53.668;10.008;2022-10-16T09:35:41;7.50;;;2.40;;
4732;SDS011;2380;53.668;10.008;2022-10-16T09:38:23;3.40;;;1.53;;
4732;SDS011;2380;53.668;10.008;2022-10-16T09:40:54;10.73;;;1.53;;
4732;SDS011;2380;53.668;10.008;2022-10-16T09:43:31;7.27;;;2.20;;
4732;SDS011;2380;53.668;10.008;2022-10-16T09:46:06;3.83;;;1.90;;
4732;SDS011;2380;53.668;10.008;2022-10-16T09:48:37;4.83;;;1.73;;
4732;SDS011;2380;53.668;10.008;2022-10-16T09:51:15;4.50;;;1.90;;
4732;SDS011;2380;53.668;10.008;2022-10-16T09:53:47;2.37;;;1.07;;
4732;SDS011;2380;53.668;10.008;2022-10-16T09:56:23;5.23;;;1.77;;
4732;SDS011;2380;53.668;10.008;2022-10-16T09:58:54;3.70;;;1.70;;
4732;SDS011;2380;53.668;10.008;2022-10-16T10:01:28;4.17;;;1.37;;
4732;SDS011;2380;53.668;10.008;2022-10-16T10:03:59;4.17;;;1.23;;
4732;SDS011;2380;53.668;10.008;2022-10-16T10:06:30;9.23;;;1.63;;
4732;SDS011;2380;53.668;10.008;2022-10-16T10:09:05;4.63;;;2.30;;
4732;SDS011;2380;53.668;10.008;2022-10-16T10:11:36;7.00;;;1.87;;
4732;SDS011;2380;53.668;10.008;2022-10-16T10:14:09;4.77;;;1.40;;
4732;SDS011;2380;53.668;10.008;2022-10-16T10:17:11;5.17;;;2.03;;
4732;SDS011;2380;53.668;10.008;2022-10-16T10:19:44;7.60;;;2.30;;
4732;SDS011;2380;53.668;10.008;2022-10-16T10:22:16;5.20;;;2.00;;
4732;SDS011;2380;53.668;10.008;2022-10-16T10:24:54;5.70;;;2.13;;
4732;SDS011;2380;53.668;10.008;2022-10-16T10:27:32;10.33;;;1.63;;
4732;SDS011;2380;53.668;10.008;2022-10-16T10:30:08;4.30;;;1.07;;
4732;SDS011;2380;53.668;10.008;2022-10-16T10:32:47;6.67;;;1.30;;
4732;SDS011;2380;53.668;10.008;2022-10-16T10:35:22;5.07;;;1.60;;
4732;SDS011;2380;53.668;10.008;2022-10-16T10:37:57;5.30;;;1.50;;
4732;SDS011;2380;53.668;10.008;2022-10-16T10:40:37;4.97;;;1.40;;
4732;SDS011;2380;53.668;10.008;2022-10-16T10:43:16;6.43;;;3.03;;
4732;SDS011;2380;53.668;10.008;2022-10-16T10:45:52;5.07;;;1.87;;
4732;SDS011;2380;53.668;10.008;2022-10-16T10:48:29;6.40;;;3.13;;
4732;SDS011;2380;53.668;10.008;2022-10-16T10:51:13;5.97;;;1.57;;
4732;SDS011;2380;53.668;10.008;2022-10-16T10:53:49;6.30;;;1.37;;
4732;SDS011;2380;53.668;10.008;2022-10-16T10:56:25;4.63;;;1.67;;
4732;SDS011;2380;53.668;10.008;2022-10-16T10:59:20;3.70;;;1.00;;
4732;SDS011;2380;53.668;10.008;2022-10-16T11:02:02;4.13;;;1.37;;
4732;SDS011;2380;53.668;10.008;2022-10-16T11:04:53;5.10;;;2.33;;
4732;SDS011;2380;53.668;10.008;2022-10-16T11:07:32;7.10;;;2.40;;
4732;SDS011;2380;53.668;10.008;2022-10-16T11:10:04;4.60;;;0.83;;
4732;SDS011;2380;53.668;10.008;2022-10-16T11:12:42;5.27;;;1.50;;
4732;SDS011;2380;53.668;10.008;2022-10-16T11:15:14;4.03;;;1.47;;
4732;SDS011;2380;53.668;10.008;2022-10-16T11:17:47;5.40;;;1.20;;
4732;SDS011;2380;53.668;10.008;2022-10-16T11:20:22;6.03;;;1.97;;
4732;SDS011;2380;53.668;10.008;2022-10-16T11:22:54;7.53;;;1.40;;
4732;SDS011;2380;53.668;10.008;2022-10-16T11:25:26;7.87;;;1.80;;
4732;SDS011;2380;53.668;10.008;2022-10-16T11:27:57;7.03;;;1.10;;
4732;SDS011;2380;53.668;10.008;2022-10-16T11:30:31;7.60;;;1.20;;
4732;SDS011;2380;53.668;10.008;2022-10-16T11:33:15;8.80;;;1.23;;
4732;SDS011;2380;53.668;10.008;2022-10-16T11:36:03;8.73;;;1.00;;
4732;SDS011;2380;53.668;10.008;2022-10-16T11:38:37;4.93;;;1.50;;
4732;SDS011;2380;53.668;10.008;2022-10-16T11:41:13;5.37;;;0.70;;
4732;SDS011;2380;53.668;10.008;2022-10-16T11:43:49;5.50;;;0.80;;
4732;SDS011;2380;53.668;10.008;2022-10-16T11:46:25;7.93;;;1.17;;
4732;SDS011;2380;53.668;10.008;2022-10-16T11:48:56;6.23;;;1.53;;
4732;SDS011;2380;53.668;10.008;2022-10-16T11:51:35;5.07;;;1.00;;
4732;SDS011;2380;53.668;10.008;2022-10-16T11:54:08;6.10;;;1.20;;
4732;SDS011;2380;53.668;10.008;2022-10-16T11:56:47;3.00;;;1.03;;
4732;SDS011;2380;53.668;10.008;2022-10-16T11:59:20;11.80;;;1.10;;
4732;SDS011;2380;53.668;10.008;2022-10-16T12:01:53;5.77;;;1.40;;
4732;SDS011;2380;53.668;10.008;2022-10-16T12:04:26;10.20;;;2.73;;
4732;SDS011;2380;53.668;10.008;2022-10-16T12:07:04;3.77;;;1.10;;
4732;SDS011;2380;53.668;10.008;2022-10-16T12:09:36;11.73;;;3.63;;
4732;SDS011;2380;53.668;10.008;2022-10-16T12:15:00;3.70;;;1.33;;
4732;SDS011;2380;53.668;10.008;2022-10-16T12:17:47;3.70;;;1.50;;
4732;SDS011;2380;53.668;10.008;2022-10-16T12:20:21;5.80;;;1.47;;
4732;SDS011;2380;53.668;10.008;2022-10-16T12:22:59;9.77;;;3.47;;
4732;SDS011;2380;53.668;10.008;2022-10-16T12:25:31;5.77;;;1.47;;
4732;SDS011;2380;53.668;10.008;2022-10-16T12:28:03;6.50;;;1.20;;
4732;SDS011;2380;53.668;10.008;2022-10-16T12:30:34;9.43;;;2.20;;
4732;SDS011;2380;53.668;10.008;2022-10-16T12:33:05;10.70;;;4.60;;
4732;SDS011;2380;53.668;10.008;2022-10-16T12:35:42;7.73;;;2.50;;
4732;SDS011;2380;53.668;10.008;2022-10-16T12:38:17;4.27;;;1.07;;
4732;SDS011;2380;53.668;10.008;2022-10-16T12:40:54;7.10;;;1.80;;
4732;SDS011;2380;53.668;10.008;2022-10-16T12:43:34;3.03;;;0.80;;
4732;SDS011;2380;53.668;10.008;2022-10-16T12:46:19;10.07;;;2.20;;
4732;SDS011;2380;53.668;10.008;2022-10-16T12:48:51;6.33;;;1.07;;
4732;SDS011;2380;53.668;10.008;2022-10-16T12:51:34;4.93;;;1.67;;
4732;SDS011;2380;53.668;10.008;2022-10-16T12:54:11;13.30;;;2.70;;
4732;SDS011;2380;53.668;10.008;2022-10-16T12:56:45;6.57;;;1.47;;
4732;SDS011;2380;53.668;10.008;2022-10-16T12:59:24;5.60;;;1.50;;
4732;SDS011;2380;53.668;10.008;2022-10-16T13:02:08;10.57;;;1.90;;
4732;SDS011;2380;53.668;10.008;2022-10-16T13:04:49;6.40;;;2.70;;
4732;SDS011;2380;53.668;10.008;2022-10-16T13:07:36;5.83;;;1.20;;
4732;SDS011;2380;53.668;10.008;2022-10-16T13:10:19;7.03;;;2.80;;
4732;SDS011;2380;53.668;10.008;2022-10-16T13:13:07;8.63;;;2.63;;
4732;SDS011;2380;53.668;10.008;2022-10-16T13:15:47;6.13;;;1.40;;
4732;SDS011;2380;53.668;10.008;2022-10-16T13:18:24;3.80;;;0.90;;
4732;SDS011;2380;53.668;10.008;2022-10-16T13:21:01;7.90;;;2.33;;
4732;SDS011;2380;53.668;10.008;2022-10-16T13:23:37;9.87;;;1.80;;
4732;SDS011;2380;53.668;10.008;2022-10-16T13:26:15;7.27;;;1.40;;
4732;SDS011;2380;53.668;10.008;2022-10-16T13:28:52;9.07;;;1.87;;
4732;SDS011;2380;53.668;10.008;2022-10-16T13:31:22;6.10;;;1.40;;
4732;SDS011;2380;53.668;10.008;2022-10-16T13:33:53;8.77;;;1.20;;
4732;SDS011;2380;53.668;10.008;2022-10-16T13:36:26;8.30;;;1.50;;
4732;SDS011;2380;53.668;10.008;2022-10-16T13:39:10;9.07;;;1.33;;
4732;SDS011;2380;53.668;10.008;2022-10-16T13:41:46;12.70;;;4.50;;
4732;SDS011;2380;53.668;10.008;2022-10-16T13:44:18;10.23;;;1.40;;
4732;SDS011;2380;53.668;10.008;2022-10-16T13:46:57;8.30;;;2.07;;
4732;SDS011;2380;53.668;10.008;2022-10-16T13:49:27;8.67;;;1.40;;
4732;SDS011;2380;53.668;10.008;2022-10-16T13:51:57;12.13;;;1.33;;
4732;SDS011;2380;53.668;10.008;2022-10-16T13:54:27;7.67;;;1.30;;
4732;SDS011;2380;53.668;10.008;2022-10-16T13:57:06;6.63;;;1.27;;
4732;SDS011;2380;53.668;10.008;2022-10-16T13:59:52;7.57;;;1.40;;
4732;SDS011;2380;53.668;10.008;2022-10-16T14:02:24;11.10;;;2.50;;
4732;SDS011;2380;53.668;10.008;2022-10-16T14:04:55;9.33;;;1.60;;
4732;SDS011;2380;53.668;10.008;2022-10-16T14:07:27;5.43;;;2.03;;
4732;SDS011;2380;53.668;10.008;2022-10-16T14:09:58;7.60;;;1.60;;
4732;SDS011;2380;53.668;10.008;2022-10-16T14:12:34;9.03;;;1.77;;
4732;SDS011;2380;53.668;10.008;2022-10-16T14:15:04;9.57;;;1.90;;
4732;SDS011;2380;53.668;10.008;2022-10-16T14:17:44;5.57;;;1.70;;
4732;SDS011;2380;53.668;10.008;2022-10-16T14:20:14;12.73;;;4.97;;
4732;SDS011;2380;53.668;10.008;2022-10-16T14:22:45;7.43;;;1.23;;
4732;SDS011;2380;53.668;10.008;2022-10-16T14:25:23;7.90;;;1.87;;
4732;SDS011;2380;53.668;10.008;2022-10-16T14:28:05;5.13;;;1.43;;
4732;SDS011;2380;53.668;10.008;2022-10-16T14:30:51;6.67;;;1.70;;
4732;SDS011;2380;53.668;10.008;2022-10-16T14:33:23;6.60;;;1.27;;
4732;SDS011;2380;53.668;10.008;2022-10-16T14:36:01;7.47;;;1.40;;
4732;SDS011;2380;53.668;10.008;2022-10-16T14:38:32;6.93;;;1.63;;
4732;SDS011;2380;53.668;10.008;2022-10-16T14:41:02;7.20;;;1.10;;
4732;SDS011;2380;53.668;10.008;2022-10-16T14:43:35;6.37;;;1.30;;
4732;SDS011;2380;53.668;10.008;2022-10-16T14:46:08;5.80;;;1.80;;
4732;SDS011;2380;53.668;10.008;2022-10-16T14:48:42;6.07;;;1.40;;
4732;SDS011;2380;53.668;10.008;2022-10-16T14:51:12;4.13;;;0.80;;
4732;SDS011;2380;53.668;10.008;2022-10-16T14:53:42;7.33;;;1.50;;
4732;SDS011;2380;53.668;10.008;2022-10-16T14:56:14;5.90;;;2.07;;
4732;SDS011;2380;53.668;10.008;2022-10-16T14:58:48;9.70;;;4.13;;
4732;SDS011;2380;53.668;10.008;2022-10-16T15:01:19;5.27;;;1.40;;
4732;SDS011;2380;53.668;10.008;2022-10-16T15:03:49;7.70;;;2.67;;
4732;SDS011;2380;53.668;10.008;2022-10-16T15:06:18;15.30;;;7.43;;
4732;SDS011;2380;53.668;10.008;2022-10-16T15:08:48;7.77;;;1.47;;
4732;SDS011;2380;53.668;10.008;2022-10-16T15:11:18;8.77;;;2.30;;
4732;SDS011;2380;53.668;10.008;2022-10-16T15:13:50;8.00;;;3.27;;
4732;SDS011;2380;53.668;10.008;2022-10-16T15:16:19;8.37;;;2.67;;
4732;SDS011;2380;53.668;10.008;2022-10-16T15:18:49;6.93;;;2.27;;
4732;SDS011;2380;53.668;10.008;2022-10-16T15:21:21;7.70;;;1.80;;
4732;SDS011;2380;53.668;10.008;2022-10-16T15:23:52;7.23;;;2.40;;
4732;SDS011;2380;53.668;10.008;2022-10-16T15:26:22;7.00;;;2.43;;
4732;SDS011;2380;53.668;10.008;2022-10-16T15:28:55;12.97;;;2.77;;
4732;SDS011;2380;53.668;10.008;2022-10-16T15:31:24;6.00;;;1.97;;
4732;SDS011;2380;53.668;10.008;2022-10-16T15:33:54;10.23;;;1.23;;
4732;SDS011;2380;53.668;10.008;2022-10-16T15:36:30;7.93;;;1.40;;